sensor_id;sensor_type;location;lat;lon;timestamp;temperature;humidity
4697;DHT22;2362;50.780;0.292;2023-04-25T00:01:02;6.40;99.90
4697;DHT22;2362;50.780;0.292;2023-04-25T00:03:30;6.40;99.90
4697;DHT22;2362;50.780;0.292;2023-04-25T00:05:56;6.40;99.90
4697;DHT22;2362;50.780;0.292;2023-04-25T00:08:22;6.40;99.90
4697;DHT22;2362;50.780;0.292;2023-04-25T00:10:48;6.40;99.90
4697;DHT22;2362;50.780;0.292;2023-04-25T00:13:14;6.50;99.90
4697;DHT22;2362;50.780;0.292;2023-04-25T00:15:43;6.40;99.90
4697;DHT22;2362;50.780;0.292;2023-04-25T00:18:08;6.40;99.90
4697;DHT22;2362;50.780;0.292;2023-04-25T00:20:35;6.40;99.90
4697;DHT22;2362;50.780;0.292;2023-04-25T00:23:01;6.40;99.90
4697;DHT22;2362;50.780;0.292;2023-04-25T00:25:27;6.40;99.90
4697;DHT22;2362;50.780;0.292;2023-04-25T00:27:52;6.40;99.90
4697;DHT22;2362;50.780;0.292;2023-04-25T00:30:18;6.40;99.90
4697;DHT22;2362;50.780;0.292;2023-04-25T00:32:44;6.40;99.90
4697;DHT22;2362;50.780;0.292;2023-04-25T00:35:10;6.40;99.90
4697;DHT22;2362;50.780;0.292;2023-04-25T00:37:36;6.40;99.90
4697;DHT22;2362;50.780;0.292;2023-04-25T00:40:05;6.30;99.90
4697;DHT22;2362;50.780;0.292;2023-04-25T00:42:31;6.40;99.90
4697;DHT22;2362;50.780;0.292;2023-04-25T00:44:58;6.30;99.90
4697;DHT22;2362;50.780;0.292;2023-04-25T00:47:25;6.40;99.90
4697;DHT22;2362;50.780;0.292;2023-04-25T00:49:51;6.30;99.90
4697;DHT22;2362;50.780;0.292;2023-04-25T00:52:19;6.30;99.90
4697;DHT22;2362;50.780;0.292;2023-04-25T00:54:45;6.30;99.90
4697;DHT22;2362;50.780;0.292;2023-04-25T00:57:11;6.30;99.90
4697;DHT22;2362;50.780;0.292;2023-04-25T00:59:37;6.40;99.90
4697;DHT22;2362;50.780;0.292;2023-04-25T01:02:04;6.40;99.90
4697;DHT22;2362;50.780;0.292;2023-04-25T01:04:30;6.30;99.90
4697;DHT22;2362;50.780;0.292;2023-04-25T01:06:56;6.40;99.90
4697;DHT22;2362;50.780;0.292;2023-04-25T01:09:23;6.30;99.90
4697;DHT22;2362;50.780;0.292;2023-04-25T01:11:49;6.30;99.90
4697;DHT22;2362;50.780;0.292;2023-04-25T01:14:15;6.30;99.90
4697;DHT22;2362;50.780;0.292;2023-04-25T01:16:41;6.30;99.90
4697;DHT22;2362;50.780;0.292;2023-04-25T01:19:09;6.30;99.90
4697;DHT22;2362;50.780;0.292;2023-04-25T01:21:38;6.30;99.90
4697;DHT22;2362;50.780;0.292;2023-04-25T01:24:05;6.30;99.90
4697;DHT22;2362;50.780;0.292;2023-04-25T01:26:31;6.30;99.90
4697;DHT22;2362;50.780;0.292;2023-04-25T01:28:58;6.30;99.90
4697;DHT22;2362;50.780;0.292;2023-04-25T01:31:24;6.30;99.90
4697;DHT22;2362;50.780;0.292;2023-04-25T01:33:50;6.30;99.90
4697;DHT22;2362;50.780;0.292;2023-04-25T01:36:17;6.30;99.90
4697;DHT22;2362;50.780;0.292;2023-04-25T01:38:43;6.30;99.90
4697;DHT22;2362;50.780;0.292;2023-04-25T01:41:09;6.20;99.90
4697;DHT22;2362;50.780;0.292;2023-04-25T01:43:35;6.30;99.90
4697;DHT22;2362;50.780;0.292;2023-04-25T01:46:01;6.20;99.90
4697;DHT22;2362;50.780;0.292;2023-04-25T01:48:27;6.20;99.90
4697;DHT22;2362;50.780;0.292;2023-04-25T01:50:52;6.20;99.90
4697;DHT22;2362;50.780;0.292;2023-04-25T01:53:18;6.10;99.90
4697;DHT22;2362;50.780;0.292;2023-04-25T01:55:44;6.20;99.90
4697;DHT22;2362;50.780;0.292;2023-04-25T02:01:27;6.10;99.90
4697;DHT22;2362;50.780;0.292;2023-04-25T02:03:52;6.10;99.90
4697;DHT22;2362;50.780;0.292;2023-04-25T02:06:18;6.10;99.90
4697;DHT22;2362;50.780;0.292;2023-04-25T02:08:44;6.00;99.90
4697;DHT22;2362;50.780;0.292;2023-04-25T02:11:09;6.00;99.90
4697;DHT22;2362;50.780;0.292;2023-04-25T02:13:35;5.90;99.90
4697;DHT22;2362;50.780;0.292;2023-04-25T02:16:00;5.90;99.90
4697;DHT22;2362;50.780;0.292;2023-04-25T02:18:26;5.90;99.90
4697;DHT22;2362;50.780;0.292;2023-04-25T02:20:52;5.90;99.90
4697;DHT22;2362;50.780;0.292;2023-04-25T02:23:17;5.80;99.90
4697;DHT22;2362;50.780;0.292;2023-04-25T02:25:44;5.80;99.90
4697;DHT22;2362;50.780;0.292;2023-04-25T02:28:10;5.80;99.90
4697;DHT22;2362;50.780;0.292;2023-04-25T02:30:36;5.80;99.90
4697;DHT22;2362;50.780;0.292;2023-04-25T02:33:02;5.80;99.90
4697;DHT22;2362;50.780;0.292;2023-04-25T02:35:52;5.70;99.90
4697;DHT22;2362;50.780;0.292;2023-04-25T02:38:43;5.70;99.90
4697;DHT22;2362;50.780;0.292;2023-04-25T02:41:34;5.70;99.90
4697;DHT22;2362;50.780;0.292;2023-04-25T02:44:25;5.70;99.90
4697;DHT22;2362;50.780;0.292;2023-04-25T02:46:51;5.70;99.90
4697;DHT22;2362;50.780;0.292;2023-04-25T02:49:16;5.70;99.90
4697;DHT22;2362;50.780;0.292;2023-04-25T02:51:42;5.70;99.90
4697;DHT22;2362;50.780;0.292;2023-04-25T02:54:08;5.70;99.90
4697;DHT22;2362;50.780;0.292;2023-04-25T02:56:33;5.70;99.90
4697;DHT22;2362;50.780;0.292;2023-04-25T02:58:59;5.70;99.90
4697;DHT22;2362;50.780;0.292;2023-04-25T03:01:25;5.70;99.90
4697;DHT22;2362;50.780;0.292;2023-04-25T03:03:50;5.60;99.90
4697;DHT22;2362;50.780;0.292;2023-04-25T03:06:16;5.60;99.90
4697;DHT22;2362;50.780;0.292;2023-04-25T03:08:42;5.60;99.90
4697;DHT22;2362;50.780;0.292;2023-04-25T03:11:08;5.50;99.90
4697;DHT22;2362;50.780;0.292;2023-04-25T03:13:33;5.40;99.90
4697;DHT22;2362;50.780;0.292;2023-04-25T03:15:59;5.40;99.90
4697;DHT22;2362;50.780;0.292;2023-04-25T03:18:25;5.40;99.90
4697;DHT22;2362;50.780;0.292;2023-04-25T03:20:51;5.30;99.90
4697;DHT22;2362;50.780;0.292;2023-04-25T03:23:17;5.20;99.90
4697;DHT22;2362;50.780;0.292;2023-04-25T03:25:42;5.10;99.90
4697;DHT22;2362;50.780;0.292;2023-04-25T03:28:08;5.10;99.90
4697;DHT22;2362;50.780;0.292;2023-04-25T03:30:34;5.00;99.90
4697;DHT22;2362;50.780;0.292;2023-04-25T03:33:00;4.90;99.90
4697;DHT22;2362;50.780;0.292;2023-04-25T03:35:25;4.90;99.90
4697;DHT22;2362;50.780;0.292;2023-04-25T03:37:51;4.80;99.90
4697;DHT22;2362;50.780;0.292;2023-04-25T03:40:17;4.70;99.90
4697;DHT22;2362;50.780;0.292;2023-04-25T03:42:42;4.70;99.90
4697;DHT22;2362;50.780;0.292;2023-04-25T03:45:08;4.70;99.90
4697;DHT22;2362;50.780;0.292;2023-04-25T03:47:34;4.60;99.90
4697;DHT22;2362;50.780;0.292;2023-04-25T03:50:04;4.60;99.90
4697;DHT22;2362;50.780;0.292;2023-04-25T03:52:30;4.50;99.90
4697;DHT22;2362;50.780;0.292;2023-04-25T03:54:56;4.50;99.90
4697;DHT22;2362;50.780;0.292;2023-04-25T03:57:21;4.40;99.90
4697;DHT22;2362;50.780;0.292;2023-04-25T03:59:47;4.40;99.90
4697;DHT22;2362;50.780;0.292;2023-04-25T04:02:13;4.30;99.90
4697;DHT22;2362;50.780;0.292;2023-04-25T04:04:41;4.30;99.90
4697;DHT22;2362;50.780;0.292;2023-04-25T04:07:09;4.30;99.90
4697;DHT22;2362;50.780;0.292;2023-04-25T04:09:35;4.20;99.90
4697;DHT22;2362;50.780;0.292;2023-04-25T04:12:01;4.20;99.90
4697;DHT22;2362;50.780;0.292;2023-04-25T04:14:27;4.10;99.90
4697;DHT22;2362;50.780;0.292;2023-04-25T04:16:53;4.20;99.90
4697;DHT22;2362;50.780;0.292;2023-04-25T04:19:19;4.10;99.90
4697;DHT22;2362;50.780;0.292;2023-04-25T04:21:48;4.10;99.90
4697;DHT22;2362;50.780;0.292;2023-04-25T04:24:13;4.00;99.90
4697;DHT22;2362;50.780;0.292;2023-04-25T04:26:40;4.00;99.90
4697;DHT22;2362;50.780;0.292;2023-04-25T04:29:06;4.00;99.90
4697;DHT22;2362;50.780;0.292;2023-04-25T04:31:32;3.90;99.90
4697;DHT22;2362;50.780;0.292;2023-04-25T04:33:58;3.90;99.90
4697;DHT22;2362;50.780;0.292;2023-04-25T04:36:23;3.80;99.90
4697;DHT22;2362;50.780;0.292;2023-04-25T04:38:51;3.80;99.90
4697;DHT22;2362;50.780;0.292;2023-04-25T04:41:18;3.70;99.90
4697;DHT22;2362;50.780;0.292;2023-04-25T04:43:45;3.70;99.90
4697;DHT22;2362;50.780;0.292;2023-04-25T04:46:10;3.70;99.90
4697;DHT22;2362;50.780;0.292;2023-04-25T04:48:38;3.60;99.90
4697;DHT22;2362;50.780;0.292;2023-04-25T04:51:07;3.60;99.90
4697;DHT22;2362;50.780;0.292;2023-04-25T04:53:32;3.60;99.90
4697;DHT22;2362;50.780;0.292;2023-04-25T04:55:58;3.60;99.90
4697;DHT22;2362;50.780;0.292;2023-04-25T04:58:24;3.60;99.90
4697;DHT22;2362;50.780;0.292;2023-04-25T05:00:49;3.50;99.90
4697;DHT22;2362;50.780;0.292;2023-04-25T05:03:15;3.50;99.90
4697;DHT22;2362;50.780;0.292;2023-04-25T05:05:41;3.50;99.90
4697;DHT22;2362;50.780;0.292;2023-04-25T05:08:07;3.50;99.90
4697;DHT22;2362;50.780;0.292;2023-04-25T05:10:33;3.50;99.90
4697;DHT22;2362;50.780;0.292;2023-04-25T05:12:58;3.50;99.90
4697;DHT22;2362;50.780;0.292;2023-04-25T05:15:24;3.50;99.90
4697;DHT22;2362;50.780;0.292;2023-04-25T05:17:50;3.50;99.90
4697;DHT22;2362;50.780;0.292;2023-04-25T05:20:15;3.50;99.90
4697;DHT22;2362;50.780;0.292;2023-04-25T05:22:41;3.50;99.90
4697;DHT22;2362;50.780;0.292;2023-04-25T05:25:08;3.50;99.90
4697;DHT22;2362;50.780;0.292;2023-04-25T05:27:34;3.60;99.90
4697;DHT22;2362;50.780;0.292;2023-04-25T05:30:00;3.60;99.90
4697;DHT22;2362;50.780;0.292;2023-04-25T05:32:26;3.60;99.90
4697;DHT22;2362;50.780;0.292;2023-04-25T05:34:52;3.60;99.90
4697;DHT22;2362;50.780;0.292;2023-04-25T05:37:17;3.70;99.90
4697;DHT22;2362;50.780;0.292;2023-04-25T05:39:43;3.70;99.90
4697;DHT22;2362;50.780;0.292;2023-04-25T05:42:09;3.70;99.90
4697;DHT22;2362;50.780;0.292;2023-04-25T05:44:59;3.80;99.90
4697;DHT22;2362;50.780;0.292;2023-04-25T05:47:26;3.80;99.90
4697;DHT22;2362;50.780;0.292;2023-04-25T05:49:52;4.20;99.90
4697;DHT22;2362;50.780;0.292;2023-04-25T05:52:18;4.70;99.90
4697;DHT22;2362;50.780;0.292;2023-04-25T05:54:44;5.20;99.90
4697;DHT22;2362;50.780;0.292;2023-04-25T05:57:22;5.60;99.90
4697;DHT22;2362;50.780;0.292;2023-04-25T05:59:47;5.80;99.90
4697;DHT22;2362;50.780;0.292;2023-04-25T06:02:13;6.00;99.90
4697;DHT22;2362;50.780;0.292;2023-04-25T06:04:38;6.40;99.90
4697;DHT22;2362;50.780;0.292;2023-04-25T06:07:04;6.50;99.90
4697;DHT22;2362;50.780;0.292;2023-04-25T06:09:30;6.70;99.90
4697;DHT22;2362;50.780;0.292;2023-04-25T06:11:57;7.00;99.90
4697;DHT22;2362;50.780;0.292;2023-04-25T06:14:23;6.80;99.90
4697;DHT22;2362;50.780;0.292;2023-04-25T06:16:49;7.00;99.90
4697;DHT22;2362;50.780;0.292;2023-04-25T06:19:40;7.00;99.90
4697;DHT22;2362;50.780;0.292;2023-04-25T06:22:09;7.30;99.90
4697;DHT22;2362;50.780;0.292;2023-04-25T06:24:35;7.30;99.90
4697;DHT22;2362;50.780;0.292;2023-04-25T06:27:01;7.50;99.90
4697;DHT22;2362;50.780;0.292;2023-04-25T06:29:26;7.60;99.90
4697;DHT22;2362;50.780;0.292;2023-04-25T06:31:56;7.80;99.90
4697;DHT22;2362;50.780;0.292;2023-04-25T06:34:22;7.70;99.90
4697;DHT22;2362;50.780;0.292;2023-04-25T06:36:48;7.80;99.90
4697;DHT22;2362;50.780;0.292;2023-04-25T06:39:13;7.90;99.90
4697;DHT22;2362;50.780;0.292;2023-04-25T06:41:39;7.90;99.90
4697;DHT22;2362;50.780;0.292;2023-04-25T06:44:05;7.90;99.90
4697;DHT22;2362;50.780;0.292;2023-04-25T06:46:31;8.10;99.90
4697;DHT22;2362;50.780;0.292;2023-04-25T06:48:57;8.30;99.90
4697;DHT22;2362;50.780;0.292;2023-04-25T06:51:23;8.40;99.90
4697;DHT22;2362;50.780;0.292;2023-04-25T06:53:50;8.70;99.90
4697;DHT22;2362;50.780;0.292;2023-04-25T06:56:16;9.00;99.90
4697;DHT22;2362;50.780;0.292;2023-04-25T06:58:41;9.50;99.90
4697;DHT22;2362;50.780;0.292;2023-04-25T07:01:07;9.70;99.90
4697;DHT22;2362;50.780;0.292;2023-04-25T07:03:33;10.00;99.90
4697;DHT22;2362;50.780;0.292;2023-04-25T07:05:58;10.30;99.90
4697;DHT22;2362;50.780;0.292;2023-04-25T07:08:47;10.40;99.90
4697;DHT22;2362;50.780;0.292;2023-04-25T07:11:54;10.00;99.90
4697;DHT22;2362;50.780;0.292;2023-04-25T07:14:22;9.60;99.90
4697;DHT22;2362;50.780;0.292;2023-04-25T07:16:48;9.40;99.90
4697;DHT22;2362;50.780;0.292;2023-04-25T07:19:15;9.30;99.90
4697;DHT22;2362;50.780;0.292;2023-04-25T07:21:40;9.20;99.90
4697;DHT22;2362;50.780;0.292;2023-04-25T07:24:31;9.00;99.90
4697;DHT22;2362;50.780;0.292;2023-04-25T07:26:58;9.00;99.90
4697;DHT22;2362;50.780;0.292;2023-04-25T07:29:24;9.20;99.90
4697;DHT22;2362;50.780;0.292;2023-04-25T07:31:51;9.60;99.90
4697;DHT22;2362;50.780;0.292;2023-04-25T07:34:18;9.70;99.90
4697;DHT22;2362;50.780;0.292;2023-04-25T07:36:48;10.10;99.90
4697;DHT22;2362;50.780;0.292;2023-04-25T07:39:14;9.90;99.90
4697;DHT22;2362;50.780;0.292;2023-04-25T07:41:40;10.20;99.90
4697;DHT22;2362;50.780;0.292;2023-04-25T07:44:06;10.40;99.90
4697;DHT22;2362;50.780;0.292;2023-04-25T07:46:32;10.70;99.90
4697;DHT22;2362;50.780;0.292;2023-04-25T07:48:57;10.20;99.90
4697;DHT22;2362;50.780;0.292;2023-04-25T07:51:23;10.40;99.90
4697;DHT22;2362;50.780;0.292;2023-04-25T07:53:48;10.50;99.90
4697;DHT22;2362;50.780;0.292;2023-04-25T07:56:14;10.40;99.90
4697;DHT22;2362;50.780;0.292;2023-04-25T07:58:40;10.60;99.90
4697;DHT22;2362;50.780;0.292;2023-04-25T08:01:05;10.80;99.90
4697;DHT22;2362;50.780;0.292;2023-04-25T08:03:31;10.30;99.90
4697;DHT22;2362;50.780;0.292;2023-04-25T08:05:57;10.50;99.90
4697;DHT22;2362;50.780;0.292;2023-04-25T08:08:23;10.50;99.90
4697;DHT22;2362;50.780;0.292;2023-04-25T08:10:48;10.60;99.90
4697;DHT22;2362;50.780;0.292;2023-04-25T08:13:14;10.40;99.90
4697;DHT22;2362;50.780;0.292;2023-04-25T08:15:39;10.70;99.90
4697;DHT22;2362;50.780;0.292;2023-04-25T08:18:05;10.20;99.90
4697;DHT22;2362;50.780;0.292;2023-04-25T08:20:31;10.30;99.90
4697;DHT22;2362;50.780;0.292;2023-04-25T08:22:57;10.40;99.90
4697;DHT22;2362;50.780;0.292;2023-04-25T08:25:22;10.30;99.90
4697;DHT22;2362;50.780;0.292;2023-04-25T08:27:48;10.10;99.90
4697;DHT22;2362;50.780;0.292;2023-04-25T08:30:14;10.50;99.90
4697;DHT22;2362;50.780;0.292;2023-04-25T08:32:40;10.70;99.90
4697;DHT22;2362;50.780;0.292;2023-04-25T08:35:06;10.60;99.90
4697;DHT22;2362;50.780;0.292;2023-04-25T08:37:32;10.60;99.90
4697;DHT22;2362;50.780;0.292;2023-04-25T08:39:58;10.70;99.90
4697;DHT22;2362;50.780;0.292;2023-04-25T08:42:24;10.70;99.90
4697;DHT22;2362;50.780;0.292;2023-04-25T08:44:53;10.60;99.90
4697;DHT22;2362;50.780;0.292;2023-04-25T08:47:22;10.60;99.90
4697;DHT22;2362;50.780;0.292;2023-04-25T08:49:48;10.60;99.90
4697;DHT22;2362;50.780;0.292;2023-04-25T08:52:16;10.30;99.90
4697;DHT22;2362;50.780;0.292;2023-04-25T08:54:48;10.20;99.90
4697;DHT22;2362;50.780;0.292;2023-04-25T08:57:14;10.00;99.90
4697;DHT22;2362;50.780;0.292;2023-04-25T08:59:41;9.80;99.90
4697;DHT22;2362;50.780;0.292;2023-04-25T09:02:11;10.10;99.90
4697;DHT22;2362;50.780;0.292;2023-04-25T09:04:40;10.00;99.90
4697;DHT22;2362;50.780;0.292;2023-04-25T09:07:06;9.80;99.90
4697;DHT22;2362;50.780;0.292;2023-04-25T09:09:32;9.70;99.90
4697;DHT22;2362;50.780;0.292;2023-04-25T09:11:58;9.50;99.90
4697;DHT22;2362;50.780;0.292;2023-04-25T09:14:24;9.50;99.90
4697;DHT22;2362;50.780;0.292;2023-04-25T09:19:24;9.20;99.90
4697;DHT22;2362;50.780;0.292;2023-04-25T09:21:53;9.20;99.90
4697;DHT22;2362;50.780;0.292;2023-04-25T09:27:03;9.60;99.90
4697;DHT22;2362;50.780;0.292;2023-04-25T09:29:30;9.70;99.90
4697;DHT22;2362;50.780;0.292;2023-04-25T09:32:23;9.60;99.90
4697;DHT22;2362;50.780;0.292;2023-04-25T09:34:53;9.50;99.90
4697;DHT22;2362;50.780;0.292;2023-04-25T09:39:55;9.20;99.90
4697;DHT22;2362;50.780;0.292;2023-04-25T09:42:25;9.10;99.90
4697;DHT22;2362;50.780;0.292;2023-04-25T09:44:53;9.30;99.90
4697;DHT22;2362;50.780;0.292;2023-04-25T09:47:19;9.40;99.90
4697;DHT22;2362;50.780;0.292;2023-04-25T09:49:46;9.20;99.90
4697;DHT22;2362;50.780;0.292;2023-04-25T09:52:17;9.20;99.90
4697;DHT22;2362;50.780;0.292;2023-04-25T09:54:47;9.30;99.90
4697;DHT22;2362;50.780;0.292;2023-04-25T09:57:15;9.50;99.90
4697;DHT22;2362;50.780;0.292;2023-04-25T09:59:46;9.60;99.90
4697;DHT22;2362;50.780;0.292;2023-04-25T10:02:14;9.60;99.90
4697;DHT22;2362;50.780;0.292;2023-04-25T10:04:40;9.50;99.90
4697;DHT22;2362;50.780;0.292;2023-04-25T10:07:08;9.30;99.90
4697;DHT22;2362;50.780;0.292;2023-04-25T10:09:37;9.10;99.90
4697;DHT22;2362;50.780;0.292;2023-04-25T10:12:03;9.00;99.90
4697;DHT22;2362;50.780;0.292;2023-04-25T10:14:32;9.10;99.90
4697;DHT22;2362;50.780;0.292;2023-04-25T10:17:01;9.40;99.90
4697;DHT22;2362;50.780;0.292;2023-04-25T10:19:27;9.60;99.90
4697;DHT22;2362;50.780;0.292;2023-04-25T10:22:07;9.90;99.90
4697;DHT22;2362;50.780;0.292;2023-04-25T10:24:35;9.80;99.90
4697;DHT22;2362;50.780;0.292;2023-04-25T10:27:01;9.60;99.90
4697;DHT22;2362;50.780;0.292;2023-04-25T10:29:27;9.40;99.90
4697;DHT22;2362;50.780;0.292;2023-04-25T10:31:53;9.50;99.90
4697;DHT22;2362;50.780;0.292;2023-04-25T10:34:24;9.60;99.90
4697;DHT22;2362;50.780;0.292;2023-04-25T10:36:51;9.60;99.90
4697;DHT22;2362;50.780;0.292;2023-04-25T10:39:23;9.80;99.90
4697;DHT22;2362;50.780;0.292;2023-04-25T10:41:58;9.90;99.90
4697;DHT22;2362;50.780;0.292;2023-04-25T10:44:28;10.40;99.90
4697;DHT22;2362;50.780;0.292;2023-04-25T10:46:59;10.60;99.90
4697;DHT22;2362;50.780;0.292;2023-04-25T10:49:30;10.40;99.90
4697;DHT22;2362;50.780;0.292;2023-04-25T10:52:11;10.00;99.90
4697;DHT22;2362;50.780;0.292;2023-04-25T10:54:48;9.80;99.90
4697;DHT22;2362;50.780;0.292;2023-04-25T10:57:53;9.90;99.90
4697;DHT22;2362;50.780;0.292;2023-04-25T11:00:20;9.90;99.90
4697;DHT22;2362;50.780;0.292;2023-04-25T11:02:57;10.20;99.90
4697;DHT22;2362;50.780;0.292;2023-04-25T11:05:30;10.30;99.90
4697;DHT22;2362;50.780;0.292;2023-04-25T11:07:58;10.40;99.90
4697;DHT22;2362;50.780;0.292;2023-04-25T11:10:31;10.70;99.90
4697;DHT22;2362;50.780;0.292;2023-04-25T11:12:58;10.80;99.90
4697;DHT22;2362;50.780;0.292;2023-04-25T11:15:25;10.90;99.90
4697;DHT22;2362;50.780;0.292;2023-04-25T11:17:52;10.60;99.90
4697;DHT22;2362;50.780;0.292;2023-04-25T11:20:18;10.50;99.90
4697;DHT22;2362;50.780;0.292;2023-04-25T11:22:46;10.60;99.90
4697;DHT22;2362;50.780;0.292;2023-04-25T11:25:13;10.80;99.90
4697;DHT22;2362;50.780;0.292;2023-04-25T11:27:52;10.80;99.90
4697;DHT22;2362;50.780;0.292;2023-04-25T11:30:19;11.10;99.90
4697;DHT22;2362;50.780;0.292;2023-04-25T11:32:45;11.20;99.90
4697;DHT22;2362;50.780;0.292;2023-04-25T11:35:11;11.50;99.90
4697;DHT22;2362;50.780;0.292;2023-04-25T11:37:42;11.30;99.60
4697;DHT22;2362;50.780;0.292;2023-04-25T11:40:10;10.90;99.50
4697;DHT22;2362;50.780;0.292;2023-04-25T11:42:44;10.70;95.80
4697;DHT22;2362;50.780;0.292;2023-04-25T11:45:10;10.50;98.10
4697;DHT22;2362;50.780;0.292;2023-04-25T11:47:37;10.60;99.90
4697;DHT22;2362;50.780;0.292;2023-04-25T11:50:05;11.00;99.60
4697;DHT22;2362;50.780;0.292;2023-04-25T11:52:38;11.40;98.80
4697;DHT22;2362;50.780;0.292;2023-04-25T11:57:42;11.60;98.80
4697;DHT22;2362;50.780;0.292;2023-04-25T12:00:16;11.50;99.10
4697;DHT22;2362;50.780;0.292;2023-04-25T12:02:50;11.40;99.30
4697;DHT22;2362;50.780;0.292;2023-04-25T12:05:16;11.50;99.90
4697;DHT22;2362;50.780;0.292;2023-04-25T12:07:42;11.50;99.50
4697;DHT22;2362;50.780;0.292;2023-04-25T12:10:13;11.30;99.90
4697;DHT22;2362;50.780;0.292;2023-04-25T12:12:42;11.10;99.60
4697;DHT22;2362;50.780;0.292;2023-04-25T12:15:15;11.20;99.90
4697;DHT22;2362;50.780;0.292;2023-04-25T12:17:45;11.10;96.90
4697;DHT22;2362;50.780;0.292;2023-04-25T12:20:19;11.20;97.80
4697;DHT22;2362;50.780;0.292;2023-04-25T12:22:47;11.30;97.10
4697;DHT22;2362;50.780;0.292;2023-04-25T12:25:42;11.30;96.20
4697;DHT22;2362;50.780;0.292;2023-04-25T12:30:55;11.50;99.90
4697;DHT22;2362;50.780;0.292;2023-04-25T12:33:22;12.00;99.90
4697;DHT22;2362;50.780;0.292;2023-04-25T12:35:48;12.00;97.90
4697;DHT22;2362;50.780;0.292;2023-04-25T12:38:27;11.40;99.80
4697;DHT22;2362;50.780;0.292;2023-04-25T12:40:54;11.30;99.90
4697;DHT22;2362;50.780;0.292;2023-04-25T12:43:20;11.30;99.90
4697;DHT22;2362;50.780;0.292;2023-04-25T12:45:54;11.20;99.90
4697;DHT22;2362;50.780;0.292;2023-04-25T12:48:21;11.20;99.90
4697;DHT22;2362;50.780;0.292;2023-04-25T12:50:47;10.90;99.90
4697;DHT22;2362;50.780;0.292;2023-04-25T12:53:22;11.00;99.90
4697;DHT22;2362;50.780;0.292;2023-04-25T12:56:14;11.00;99.90
4697;DHT22;2362;50.780;0.292;2023-04-25T12:58:40;11.30;99.90
4697;DHT22;2362;50.780;0.292;2023-04-25T13:01:06;11.40;99.90
4697;DHT22;2362;50.780;0.292;2023-04-25T13:03:32;11.50;99.90
4697;DHT22;2362;50.780;0.292;2023-04-25T13:05:58;11.30;99.90
4697;DHT22;2362;50.780;0.292;2023-04-25T13:08:24;11.40;99.90
4697;DHT22;2362;50.780;0.292;2023-04-25T13:10:49;11.40;99.90
4697;DHT22;2362;50.780;0.292;2023-04-25T13:13:15;11.40;99.90
4697;DHT22;2362;50.780;0.292;2023-04-25T13:15:41;11.70;99.90
4697;DHT22;2362;50.780;0.292;2023-04-25T13:18:07;12.00;99.90
4697;DHT22;2362;50.780;0.292;2023-04-25T13:20:33;11.80;99.90
4697;DHT22;2362;50.780;0.292;2023-04-25T13:22:59;11.40;99.90
4697;DHT22;2362;50.780;0.292;2023-04-25T13:25:25;11.40;99.90
4697;DHT22;2362;50.780;0.292;2023-04-25T13:27:51;11.10;99.90
4697;DHT22;2362;50.780;0.292;2023-04-25T13:30:42;11.00;99.90
4697;DHT22;2362;50.780;0.292;2023-04-25T13:33:33;11.20;99.90
4697;DHT22;2362;50.780;0.292;2023-04-25T13:36:02;11.10;99.90
4697;DHT22;2362;50.780;0.292;2023-04-25T13:38:28;11.30;99.90
4697;DHT22;2362;50.780;0.292;2023-04-25T13:40:54;11.40;99.90
4697;DHT22;2362;50.780;0.292;2023-04-25T13:43:20;11.60;99.90
4697;DHT22;2362;50.780;0.292;2023-04-25T13:45:48;11.60;99.90
4697;DHT22;2362;50.780;0.292;2023-04-25T13:48:14;11.50;99.90
4697;DHT22;2362;50.780;0.292;2023-04-25T13:50:39;11.40;99.90
4697;DHT22;2362;50.780;0.292;2023-04-25T13:53:05;11.20;99.90
4697;DHT22;2362;50.780;0.292;2023-04-25T13:55:31;11.00;99.90
4697;DHT22;2362;50.780;0.292;2023-04-25T13:57:57;11.00;99.90
4697;DHT22;2362;50.780;0.292;2023-04-25T14:00:22;11.20;99.90
4697;DHT22;2362;50.780;0.292;2023-04-25T14:02:48;11.20;99.90
4697;DHT22;2362;50.780;0.292;2023-04-25T14:05:14;11.40;99.90
4697;DHT22;2362;50.780;0.292;2023-04-25T14:07:40;11.20;99.90
4697;DHT22;2362;50.780;0.292;2023-04-25T14:10:06;11.30;99.90
4697;DHT22;2362;50.780;0.292;2023-04-25T14:12:32;11.30;99.90
4697;DHT22;2362;50.780;0.292;2023-04-25T14:14:58;11.30;99.90
4697;DHT22;2362;50.780;0.292;2023-04-25T14:17:24;11.30;99.90
4697;DHT22;2362;50.780;0.292;2023-04-25T14:19:50;11.30;99.90
4697;DHT22;2362;50.780;0.292;2023-04-25T14:22:16;11.60;99.90
4697;DHT22;2362;50.780;0.292;2023-04-25T14:24:42;12.00;99.90
4697;DHT22;2362;50.780;0.292;2023-04-25T14:27:07;11.90;99.90
4697;DHT22;2362;50.780;0.292;2023-04-25T14:29:33;11.80;99.90
4697;DHT22;2362;50.780;0.292;2023-04-25T14:31:59;11.80;99.90
4697;DHT22;2362;50.780;0.292;2023-04-25T14:34:25;11.70;99.90
4697;DHT22;2362;50.780;0.292;2023-04-25T14:36:51;11.30;99.90
4697;DHT22;2362;50.780;0.292;2023-04-25T14:39:18;11.30;99.90
4697;DHT22;2362;50.780;0.292;2023-04-25T14:41:44;11.50;99.90
4697;DHT22;2362;50.780;0.292;2023-04-25T14:44:10;11.50;99.90
4697;DHT22;2362;50.780;0.292;2023-04-25T14:46:36;11.30;99.90
4697;DHT22;2362;50.780;0.292;2023-04-25T14:49:03;11.30;99.90
4697;DHT22;2362;50.780;0.292;2023-04-25T14:51:28;11.00;99.90
4697;DHT22;2362;50.780;0.292;2023-04-25T14:53:55;11.00;99.90
4697;DHT22;2362;50.780;0.292;2023-04-25T14:56:21;11.10;99.90
4697;DHT22;2362;50.780;0.292;2023-04-25T14:58:46;11.00;99.90
4697;DHT22;2362;50.780;0.292;2023-04-25T15:01:13;10.80;99.90
4697;DHT22;2362;50.780;0.292;2023-04-25T15:03:42;10.90;99.90
4697;DHT22;2362;50.780;0.292;2023-04-25T15:06:08;10.90;99.90
4697;DHT22;2362;50.780;0.292;2023-04-25T15:08:34;11.00;99.90
4697;DHT22;2362;50.780;0.292;2023-04-25T15:11:00;11.10;99.90
4697;DHT22;2362;50.780;0.292;2023-04-25T15:13:26;10.70;99.90
4697;DHT22;2362;50.780;0.292;2023-04-25T15:15:52;10.60;99.90
4697;DHT22;2362;50.780;0.292;2023-04-25T15:18:20;10.50;99.90
4697;DHT22;2362;50.780;0.292;2023-04-25T15:20:52;10.60;99.90
4697;DHT22;2362;50.780;0.292;2023-04-25T15:23:19;10.80;99.90
4697;DHT22;2362;50.780;0.292;2023-04-25T15:25:45;10.90;99.90
4697;DHT22;2362;50.780;0.292;2023-04-25T15:28:13;11.00;99.90
4697;DHT22;2362;50.780;0.292;2023-04-25T15:30:41;11.10;99.90
4697;DHT22;2362;50.780;0.292;2023-04-25T15:33:07;11.00;99.90
4697;DHT22;2362;50.780;0.292;2023-04-25T15:35:33;11.00;99.90
4697;DHT22;2362;50.780;0.292;2023-04-25T15:37:58;11.00;99.90
4697;DHT22;2362;50.780;0.292;2023-04-25T15:40:24;11.00;99.90
4697;DHT22;2362;50.780;0.292;2023-04-25T15:42:51;11.00;99.90
4697;DHT22;2362;50.780;0.292;2023-04-25T15:45:18;10.80;99.90
4697;DHT22;2362;50.780;0.292;2023-04-25T15:47:44;10.70;99.90
4697;DHT22;2362;50.780;0.292;2023-04-25T15:50:11;10.60;99.90
4697;DHT22;2362;50.780;0.292;2023-04-25T15:52:37;10.60;99.90
4697;DHT22;2362;50.780;0.292;2023-04-25T15:55:04;10.50;99.90
4697;DHT22;2362;50.780;0.292;2023-04-25T15:57:32;10.40;99.90
4697;DHT22;2362;50.780;0.292;2023-04-25T15:59:58;10.40;99.90
4697;DHT22;2362;50.780;0.292;2023-04-25T16:02:23;10.40;99.90
4697;DHT22;2362;50.780;0.292;2023-04-25T16:04:49;10.40;99.90
4697;DHT22;2362;50.780;0.292;2023-04-25T16:07:16;10.50;99.90
4697;DHT22;2362;50.780;0.292;2023-04-25T16:09:44;10.40;99.90
4697;DHT22;2362;50.780;0.292;2023-04-25T16:12:12;10.30;99.90
4697;DHT22;2362;50.780;0.292;2023-04-25T16:14:37;10.20;99.90
4697;DHT22;2362;50.780;0.292;2023-04-25T16:17:03;10.20;99.90
4697;DHT22;2362;50.780;0.292;2023-04-25T16:19:29;10.20;99.90
4697;DHT22;2362;50.780;0.292;2023-04-25T16:21:54;10.20;99.90
4697;DHT22;2362;50.780;0.292;2023-04-25T16:24:20;10.20;99.90
4697;DHT22;2362;50.780;0.292;2023-04-25T16:26:46;10.30;99.90
4697;DHT22;2362;50.780;0.292;2023-04-25T16:29:11;10.10;99.90